sensor_id;sensor_type;location;lat;lon;timestamp;P1;durP1;ratioP1;P2;durP2;ratioP2
73980;SDS011;62348;51.412;5.436;2022-11-20T00:01:09;16.98;;;11.52;;
73980;SDS011;62348;51.412;5.436;2022-11-20T00:03:35;17.73;;;10.82;;
73980;SDS011;62348;51.412;5.436;2022-11-20T00:06:01;17.77;;;11.57;;
73980;SDS011;62348;51.412;5.436;2022-11-20T00:08:28;18.27;;;10.80;;
73980;SDS011;62348;51.412;5.436;2022-11-20T00:10:53;16.85;;;10.43;;
73980;SDS011;62348;51.412;5.436;2022-11-20T00:13:19;14.90;;;10.77;;
73980;SDS011;62348;51.412;5.436;2022-11-20T00:15:44;16.92;;;11.18;;
73980;SDS011;62348;51.412;5.436;2022-11-20T00:18:10;16.40;;;10.68;;
73980;SDS011;62348;51.412;5.436;2022-11-20T00:20:35;15.30;;;11.52;;
73980;SDS011;62348;51.412;5.436;2022-11-20T00:23:00;16.40;;;11.10;;
73980;SDS011;62348;51.412;5.436;2022-11-20T00:25:26;17.88;;;11.32;;
73980;SDS011;62348;51.412;5.436;2022-11-20T00:27:51;14.70;;;10.55;;
73980;SDS011;62348;51.412;5.436;2022-11-20T00:30:16;16.25;;;11.13;;
73980;SDS011;62348;51.412;5.436;2022-11-20T00:32:42;17.48;;;11.27;;
73980;SDS011;62348;51.412;5.436;2022-11-20T00:35:07;19.42;;;11.05;;
73980;SDS011;62348;51.412;5.436;2022-11-20T00:37:33;19.30;;;11.25;;
73980;SDS011;62348;51.412;5.436;2022-11-20T00:39:58;17.17;;;10.57;;
73980;SDS011;62348;51.412;5.436;2022-11-20T00:42:24;18.10;;;11.63;;
73980;SDS011;62348;51.412;5.436;2022-11-20T00:44:49;16.05;;;10.63;;
73980;SDS011;62348;51.412;5.436;2022-11-20T00:47:14;15.02;;;10.77;;
73980;SDS011;62348;51.412;5.436;2022-11-20T00:49:40;16.75;;;11.73;;
73980;SDS011;62348;51.412;5.436;2022-11-20T00:52:05;18.58;;;11.57;;
73980;SDS011;62348;51.412;5.436;2022-11-20T00:54:30;17.70;;;11.43;;
73980;SDS011;62348;51.412;5.436;2022-11-20T00:56:56;17.00;;;10.98;;
73980;SDS011;62348;51.412;5.436;2022-11-20T00:59:21;21.13;;;12.32;;
73980;SDS011;62348;51.412;5.436;2022-11-20T01:01:47;16.25;;;10.35;;
73980;SDS011;62348;51.412;5.436;2022-11-20T01:04:12;19.08;;;11.57;;
73980;SDS011;62348;51.412;5.436;2022-11-20T01:06:38;18.40;;;11.48;;
73980;SDS011;62348;51.412;5.436;2022-11-20T01:09:09;19.00;;;11.48;;
73980;SDS011;62348;51.412;5.436;2022-11-20T01:11:38;17.63;;;11.45;;
73980;SDS011;62348;51.412;5.436;2022-11-20T01:14:07;18.17;;;11.43;;
73980;SDS011;62348;51.412;5.436;2022-11-20T01:16:36;20.35;;;11.70;;
73980;SDS011;62348;51.412;5.436;2022-11-20T01:19:04;18.58;;;11.82;;
73980;SDS011;62348;51.412;5.436;2022-11-20T01:21:35;19.75;;;12.27;;
73980;SDS011;62348;51.412;5.436;2022-11-20T01:24:02;17.27;;;11.43;;
73980;SDS011;62348;51.412;5.436;2022-11-20T01:26:30;18.38;;;11.77;;
73980;SDS011;62348;51.412;5.436;2022-11-20T01:28:57;19.95;;;11.70;;
73980;SDS011;62348;51.412;5.436;2022-11-20T01:31:26;19.05;;;12.68;;
73980;SDS011;62348;51.412;5.436;2022-11-20T01:33:54;21.05;;;12.80;;
73980;SDS011;62348;51.412;5.436;2022-11-20T01:36:21;20.70;;;12.35;;
73980;SDS011;62348;51.412;5.436;2022-11-20T01:38:52;19.85;;;12.32;;
73980;SDS011;62348;51.412;5.436;2022-11-20T01:41:18;19.30;;;11.75;;
73980;SDS011;62348;51.412;5.436;2022-11-20T01:44:03;20.98;;;13.18;;
73980;SDS011;62348;51.412;5.436;2022-11-20T01:46:30;20.58;;;12.00;;
73980;SDS011;62348;51.412;5.436;2022-11-20T01:49:02;20.70;;;12.37;;
73980;SDS011;62348;51.412;5.436;2022-11-20T01:51:33;19.48;;;13.32;;
73980;SDS011;62348;51.412;5.436;2022-11-20T01:54:04;18.35;;;12.38;;
73980;SDS011;62348;51.412;5.436;2022-11-20T01:56:33;18.77;;;12.32;;
73980;SDS011;62348;51.412;5.436;2022-11-20T01:59:04;18.80;;;12.80;;
73980;SDS011;62348;51.412;5.436;2022-11-20T02:01:32;20.67;;;13.00;;
73980;SDS011;62348;51.412;5.436;2022-11-20T02:03:58;20.55;;;12.65;;
73980;SDS011;62348;51.412;5.436;2022-11-20T02:09:14;20.63;;;12.07;;
73980;SDS011;62348;51.412;5.436;2022-11-20T02:11:41;21.55;;;13.45;;
73980;SDS011;62348;51.412;5.436;2022-11-20T02:14:06;19.88;;;13.27;;
73980;SDS011;62348;51.412;5.436;2022-11-20T02:16:39;22.17;;;13.57;;
73980;SDS011;62348;51.412;5.436;2022-11-20T02:19:12;19.02;;;12.43;;
73980;SDS011;62348;51.412;5.436;2022-11-20T02:24:29;20.52;;;13.07;;
73980;SDS011;62348;51.412;5.436;2022-11-20T02:26:59;22.00;;;13.55;;
73980;SDS011;62348;51.412;5.436;2022-11-20T02:29:34;19.63;;;13.43;;
73980;SDS011;62348;51.412;5.436;2022-11-20T02:32:01;19.83;;;12.32;;
73980;SDS011;62348;51.412;5.436;2022-11-20T02:34:28;19.17;;;12.10;;
73980;SDS011;62348;51.412;5.436;2022-11-20T02:36:54;21.60;;;12.75;;
73980;SDS011;62348;51.412;5.436;2022-11-20T02:39:20;18.45;;;12.85;;
73980;SDS011;62348;51.412;5.436;2022-11-20T02:41:49;21.52;;;13.55;;
73980;SDS011;62348;51.412;5.436;2022-11-20T02:44:18;19.58;;;13.00;;
73980;SDS011;62348;51.412;5.436;2022-11-20T02:46:44;18.60;;;12.43;;
73980;SDS011;62348;51.412;5.436;2022-11-20T02:49:09;20.75;;;13.10;;
73980;SDS011;62348;51.412;5.436;2022-11-20T02:51:35;18.17;;;12.77;;
73980;SDS011;62348;51.412;5.436;2022-11-20T02:54:00;21.85;;;13.50;;
73980;SDS011;62348;51.412;5.436;2022-11-20T02:56:25;20.58;;;13.68;;
73980;SDS011;62348;51.412;5.436;2022-11-20T02:58:51;19.75;;;12.98;;
73980;SDS011;62348;51.412;5.436;2022-11-20T03:01:17;23.45;;;15.18;;
73980;SDS011;62348;51.412;5.436;2022-11-20T03:03:42;20.90;;;12.95;;
73980;SDS011;62348;51.412;5.436;2022-11-20T03:06:08;19.85;;;12.77;;
73980;SDS011;62348;51.412;5.436;2022-11-20T03:08:33;19.33;;;12.25;;
73980;SDS011;62348;51.412;5.436;2022-11-20T03:11:03;21.55;;;12.45;;
73980;SDS011;62348;51.412;5.436;2022-11-20T03:13:31;20.27;;;13.05;;
73980;SDS011;62348;51.412;5.436;2022-11-20T03:15:57;19.92;;;12.48;;
73980;SDS011;62348;51.412;5.436;2022-11-20T03:18:22;18.75;;;12.40;;
73980;SDS011;62348;51.412;5.436;2022-11-20T03:20:47;20.20;;;12.77;;
73980;SDS011;62348;51.412;5.436;2022-11-20T03:23:13;19.33;;;13.18;;
73980;SDS011;62348;51.412;5.436;2022-11-20T03:25:38;18.50;;;12.30;;
73980;SDS011;62348;51.412;5.436;2022-11-20T03:28:03;18.35;;;12.07;;
73980;SDS011;62348;51.412;5.436;2022-11-20T03:30:29;19.70;;;12.15;;
73980;SDS011;62348;51.412;5.436;2022-11-20T03:32:54;19.10;;;12.07;;
73980;SDS011;62348;51.412;5.436;2022-11-20T03:35:20;21.48;;;13.13;;
73980;SDS011;62348;51.412;5.436;2022-11-20T03:37:45;19.88;;;12.30;;
73980;SDS011;62348;51.412;5.436;2022-11-20T03:40:11;20.77;;;12.85;;
73980;SDS011;62348;51.412;5.436;2022-11-20T03:42:36;19.65;;;12.85;;
73980;SDS011;62348;51.412;5.436;2022-11-20T03:45:15;22.77;;;12.50;;
73980;SDS011;62348;51.412;5.436;2022-11-20T03:47:41;19.13;;;12.10;;
73980;SDS011;62348;51.412;5.436;2022-11-20T03:50:07;20.63;;;11.45;;
73980;SDS011;62348;51.412;5.436;2022-11-20T03:52:33;19.77;;;12.40;;
73980;SDS011;62348;51.412;5.436;2022-11-20T03:54:58;22.15;;;12.98;;
73980;SDS011;62348;51.412;5.436;2022-11-20T03:57:24;18.38;;;12.40;;
73980;SDS011;62348;51.412;5.436;2022-11-20T03:59:49;20.50;;;12.63;;
73980;SDS011;62348;51.412;5.436;2022-11-20T04:02:14;18.15;;;12.10;;
73980;SDS011;62348;51.412;5.436;2022-11-20T04:04:40;23.08;;;13.32;;
73980;SDS011;62348;51.412;5.436;2022-11-20T04:07:05;20.55;;;12.45;;
73980;SDS011;62348;51.412;5.436;2022-11-20T04:09:31;17.30;;;12.60;;
73980;SDS011;62348;51.412;5.436;2022-11-20T04:11:56;20.80;;;12.90;;
73980;SDS011;62348;51.412;5.436;2022-11-20T04:14:21;18.13;;;12.73;;
73980;SDS011;62348;51.412;5.436;2022-11-20T04:16:47;17.23;;;12.40;;
73980;SDS011;62348;51.412;5.436;2022-11-20T04:19:13;22.35;;;13.75;;
73980;SDS011;62348;51.412;5.436;2022-11-20T04:21:41;20.70;;;13.25;;
73980;SDS011;62348;51.412;5.436;2022-11-20T04:24:07;21.52;;;13.00;;
73980;SDS011;62348;51.412;5.436;2022-11-20T04:26:33;19.55;;;12.35;;
73980;SDS011;62348;51.412;5.436;2022-11-20T04:28:59;19.92;;;12.80;;
73980;SDS011;62348;51.412;5.436;2022-11-20T04:31:31;20.73;;;12.65;;
73980;SDS011;62348;51.412;5.436;2022-11-20T04:34:01;20.45;;;13.50;;
73980;SDS011;62348;51.412;5.436;2022-11-20T04:36:29;20.58;;;12.07;;
73980;SDS011;62348;51.412;5.436;2022-11-20T04:38:58;18.15;;;12.00;;
73980;SDS011;62348;51.412;5.436;2022-11-20T04:41:29;19.42;;;12.77;;
73980;SDS011;62348;51.412;5.436;2022-11-20T04:43:58;21.65;;;12.57;;
73980;SDS011;62348;51.412;5.436;2022-11-20T04:46:27;18.30;;;12.77;;
73980;SDS011;62348;51.412;5.436;2022-11-20T04:48:53;18.33;;;12.55;;
73980;SDS011;62348;51.412;5.436;2022-11-20T04:51:19;20.10;;;13.32;;
73980;SDS011;62348;51.412;5.436;2022-11-20T04:53:45;20.63;;;12.73;;
73980;SDS011;62348;51.412;5.436;2022-11-20T04:56:11;19.45;;;12.88;;
73980;SDS011;62348;51.412;5.436;2022-11-20T04:58:37;19.80;;;12.65;;
73980;SDS011;62348;51.412;5.436;2022-11-20T05:01:03;19.98;;;13.00;;
73980;SDS011;62348;51.412;5.436;2022-11-20T05:03:30;20.80;;;12.63;;
73980;SDS011;62348;51.412;5.436;2022-11-20T05:05:56;21.30;;;13.80;;
73980;SDS011;62348;51.412;5.436;2022-11-20T05:08:25;18.90;;;12.77;;
73980;SDS011;62348;51.412;5.436;2022-11-20T05:10:50;20.17;;;12.68;;
73980;SDS011;62348;51.412;5.436;2022-11-20T05:13:15;20.80;;;12.68;;
73980;SDS011;62348;51.412;5.436;2022-11-20T05:15:41;20.98;;;13.13;;
73980;SDS011;62348;51.412;5.436;2022-11-20T05:18:06;17.67;;;12.23;;
73980;SDS011;62348;51.412;5.436;2022-11-20T05:20:32;18.50;;;12.35;;
73980;SDS011;62348;51.412;5.436;2022-11-20T05:22:57;24.27;;;13.00;;
73980;SDS011;62348;51.412;5.436;2022-11-20T05:25:23;20.23;;;13.35;;
73980;SDS011;62348;51.412;5.436;2022-11-20T05:27:49;20.50;;;13.52;;
73980;SDS011;62348;51.412;5.436;2022-11-20T05:30:14;22.25;;;14.02;;
73980;SDS011;62348;51.412;5.436;2022-11-20T05:32:40;21.33;;;13.60;;
73980;SDS011;62348;51.412;5.436;2022-11-20T05:35:05;20.98;;;13.70;;
73980;SDS011;62348;51.412;5.436;2022-11-20T05:37:31;19.50;;;12.85;;
73980;SDS011;62348;51.412;5.436;2022-11-20T05:39:56;20.30;;;13.18;;
73980;SDS011;62348;51.412;5.436;2022-11-20T05:42:21;17.75;;;12.43;;
73980;SDS011;62348;51.412;5.436;2022-11-20T05:45:02;18.35;;;12.35;;
73980;SDS011;62348;51.412;5.436;2022-11-20T05:47:31;19.85;;;12.48;;
73980;SDS011;62348;51.412;5.436;2022-11-20T05:49:58;22.08;;;13.82;;
73980;SDS011;62348;51.412;5.436;2022-11-20T05:52:23;19.27;;;12.05;;
73980;SDS011;62348;51.412;5.436;2022-11-20T05:54:49;21.58;;;13.50;;
73980;SDS011;62348;51.412;5.436;2022-11-20T05:57:14;21.55;;;13.65;;
73980;SDS011;62348;51.412;5.436;2022-11-20T05:59:40;18.40;;;13.15;;
73980;SDS011;62348;51.412;5.436;2022-11-20T06:02:05;20.35;;;13.25;;
73980;SDS011;62348;51.412;5.436;2022-11-20T06:04:31;19.48;;;12.57;;
73980;SDS011;62348;51.412;5.436;2022-11-20T06:06:56;21.40;;;13.05;;
73980;SDS011;62348;51.412;5.436;2022-11-20T06:09:22;21.92;;;12.75;;
73980;SDS011;62348;51.412;5.436;2022-11-20T06:11:47;20.13;;;12.57;;
73980;SDS011;62348;51.412;5.436;2022-11-20T06:14:12;19.80;;;12.63;;
73980;SDS011;62348;51.412;5.436;2022-11-20T06:16:38;19.70;;;13.57;;
73980;SDS011;62348;51.412;5.436;2022-11-20T06:19:03;21.00;;;13.20;;
73980;SDS011;62348;51.412;5.436;2022-11-20T06:21:28;21.77;;;14.40;;
73980;SDS011;62348;51.412;5.436;2022-11-20T06:23:54;21.23;;;12.52;;
73980;SDS011;62348;51.412;5.436;2022-11-20T06:26:20;20.38;;;13.57;;
73980;SDS011;62348;51.412;5.436;2022-11-20T06:28:47;20.50;;;13.20;;
73980;SDS011;62348;51.412;5.436;2022-11-20T06:31:14;19.05;;;12.75;;
73980;SDS011;62348;51.412;5.436;2022-11-20T06:33:41;23.00;;;13.00;;
73980;SDS011;62348;51.412;5.436;2022-11-20T06:36:09;19.67;;;13.27;;
73980;SDS011;62348;51.412;5.436;2022-11-20T06:38:36;20.52;;;14.07;;
73980;SDS011;62348;51.412;5.436;2022-11-20T06:41:02;22.02;;;13.43;;
73980;SDS011;62348;51.412;5.436;2022-11-20T06:43:29;18.17;;;12.85;;
73980;SDS011;62348;51.412;5.436;2022-11-20T06:45:55;18.52;;;12.60;;
73980;SDS011;62348;51.412;5.436;2022-11-20T06:48:22;20.30;;;12.93;;
73980;SDS011;62348;51.412;5.436;2022-11-20T06:50:48;19.33;;;12.73;;
73980;SDS011;62348;51.412;5.436;2022-11-20T06:53:13;22.23;;;13.50;;
73980;SDS011;62348;51.412;5.436;2022-11-20T06:55:42;19.83;;;13.32;;
73980;SDS011;62348;51.412;5.436;2022-11-20T06:58:12;19.35;;;12.73;;
73980;SDS011;62348;51.412;5.436;2022-11-20T07:00:38;22.40;;;12.82;;
73980;SDS011;62348;51.412;5.436;2022-11-20T07:03:04;19.13;;;12.63;;
73980;SDS011;62348;51.412;5.436;2022-11-20T07:05:29;19.25;;;12.70;;
73980;SDS011;62348;51.412;5.436;2022-11-20T07:07:55;16.60;;;12.18;;
73980;SDS011;62348;51.412;5.436;2022-11-20T07:10:21;21.58;;;12.77;;
73980;SDS011;62348;51.412;5.436;2022-11-20T07:12:50;18.50;;;12.35;;
73980;SDS011;62348;51.412;5.436;2022-11-20T07:15:19;20.13;;;13.15;;
73980;SDS011;62348;51.412;5.436;2022-11-20T07:17:46;20.10;;;12.43;;
73980;SDS011;62348;51.412;5.436;2022-11-20T07:20:12;19.05;;;13.30;;
73980;SDS011;62348;51.412;5.436;2022-11-20T07:22:38;21.17;;;13.32;;
73980;SDS011;62348;51.412;5.436;2022-11-20T07:25:03;23.23;;;14.80;;
73980;SDS011;62348;51.412;5.436;2022-11-20T07:27:29;23.42;;;12.88;;
73980;SDS011;62348;51.412;5.436;2022-11-20T07:29:55;19.83;;;13.50;;
73980;SDS011;62348;51.412;5.436;2022-11-20T07:32:20;23.42;;;13.90;;
73980;SDS011;62348;51.412;5.436;2022-11-20T07:34:46;19.27;;;12.52;;
73980;SDS011;62348;51.412;5.436;2022-11-20T07:37:12;22.45;;;13.73;;
73980;SDS011;62348;51.412;5.436;2022-11-20T07:39:37;18.52;;;12.38;;
73980;SDS011;62348;51.412;5.436;2022-11-20T07:42:03;20.63;;;13.50;;
73980;SDS011;62348;51.412;5.436;2022-11-20T07:44:28;17.40;;;12.93;;
73980;SDS011;62348;51.412;5.436;2022-11-20T07:46:54;21.65;;;13.77;;
73980;SDS011;62348;51.412;5.436;2022-11-20T07:49:19;22.33;;;13.75;;
73980;SDS011;62348;51.412;5.436;2022-11-20T07:51:44;20.48;;;13.13;;
73980;SDS011;62348;51.412;5.436;2022-11-20T07:54:10;19.73;;;13.15;;
73980;SDS011;62348;51.412;5.436;2022-11-20T07:56:35;19.10;;;13.75;;
73980;SDS011;62348;51.412;5.436;2022-11-20T07:59:01;23.83;;;13.60;;
73980;SDS011;62348;51.412;5.436;2022-11-20T08:01:26;21.25;;;13.15;;
73980;SDS011;62348;51.412;5.436;2022-11-20T08:03:51;24.17;;;14.77;;
73980;SDS011;62348;51.412;5.436;2022-11-20T08:06:17;19.52;;;14.05;;
73980;SDS011;62348;51.412;5.436;2022-11-20T08:08:44;20.90;;;14.02;;
73980;SDS011;62348;51.412;5.436;2022-11-20T08:11:09;21.67;;;13.13;;
73980;SDS011;62348;51.412;5.436;2022-11-20T08:13:53;23.42;;;14.63;;
73980;SDS011;62348;51.412;5.436;2022-11-20T08:16:40;23.02;;;15.23;;
73980;SDS011;62348;51.412;5.436;2022-11-20T08:19:07;20.15;;;13.40;;
73980;SDS011;62348;51.412;5.436;2022-11-20T08:21:33;18.90;;;12.57;;
73980;SDS011;62348;51.412;5.436;2022-11-20T08:23:58;23.40;;;13.65;;
73980;SDS011;62348;51.412;5.436;2022-11-20T08:26:24;21.25;;;13.30;;
73980;SDS011;62348;51.412;5.436;2022-11-20T08:28:54;24.25;;;14.35;;
73980;SDS011;62348;51.412;5.436;2022-11-20T08:33:49;23.13;;;13.63;;
73980;SDS011;62348;51.412;5.436;2022-11-20T08:36:15;24.38;;;15.05;;
73980;SDS011;62348;51.412;5.436;2022-11-20T08:38:40;19.88;;;13.48;;
73980;SDS011;62348;51.412;5.436;2022-11-20T08:41:06;22.52;;;13.98;;
73980;SDS011;62348;51.412;5.436;2022-11-20T08:43:51;21.33;;;13.75;;
73980;SDS011;62348;51.412;5.436;2022-11-20T08:46:21;26.20;;;15.38;;
73980;SDS011;62348;51.412;5.436;2022-11-20T08:48:46;26.60;;;15.75;;
73980;SDS011;62348;51.412;5.436;2022-11-20T08:51:12;26.83;;;16.20;;
73980;SDS011;62348;51.412;5.436;2022-11-20T08:53:38;26.50;;;15.05;;
73980;SDS011;62348;51.412;5.436;2022-11-20T08:56:04;30.77;;;16.40;;
73980;SDS011;62348;51.412;5.436;2022-11-20T08:58:30;31.80;;;17.52;;
73980;SDS011;62348;51.412;5.436;2022-11-20T09:00:56;27.92;;;15.73;;
73980;SDS011;62348;51.412;5.436;2022-11-20T09:03:21;29.23;;;15.90;;
73980;SDS011;62348;51.412;5.436;2022-11-20T09:05:47;33.92;;;17.08;;
73980;SDS011;62348;51.412;5.436;2022-11-20T09:08:12;30.35;;;16.50;;
73980;SDS011;62348;51.412;5.436;2022-11-20T09:10:37;30.58;;;18.02;;
73980;SDS011;62348;51.412;5.436;2022-11-20T09:13:06;42.55;;;20.35;;
73980;SDS011;62348;51.412;5.436;2022-11-20T09:15:32;43.13;;;19.77;;
73980;SDS011;62348;51.412;5.436;2022-11-20T09:17:59;47.03;;;22.23;;
73980;SDS011;62348;51.412;5.436;2022-11-20T09:20:27;46.05;;;22.55;;
73980;SDS011;62348;51.412;5.436;2022-11-20T09:22:53;46.60;;;22.10;;
73980;SDS011;62348;51.412;5.436;2022-11-20T09:25:19;49.80;;;24.83;;
73980;SDS011;62348;51.412;5.436;2022-11-20T09:27:45;50.10;;;23.70;;
73980;SDS011;62348;51.412;5.436;2022-11-20T09:30:11;49.17;;;24.45;;
73980;SDS011;62348;51.412;5.436;2022-11-20T09:32:38;50.42;;;23.27;;
73980;SDS011;62348;51.412;5.436;2022-11-20T09:35:04;49.03;;;23.95;;
73980;SDS011;62348;51.412;5.436;2022-11-20T09:37:30;51.42;;;24.92;;
73980;SDS011;62348;51.412;5.436;2022-11-20T09:39:55;53.10;;;23.98;;
73980;SDS011;62348;51.412;5.436;2022-11-20T09:42:30;51.92;;;22.52;;
73980;SDS011;62348;51.412;5.436;2022-11-20T09:53:10;51.97;;;25.33;;
73980;SDS011;62348;51.412;5.436;2022-11-20T09:56:14;52.67;;;24.75;;
73980;SDS011;62348;51.412;5.436;2022-11-20T09:58:45;55.70;;;25.60;;
73980;SDS011;62348;51.412;5.436;2022-11-20T10:01:13;53.85;;;25.77;;
73980;SDS011;62348;51.412;5.436;2022-11-20T10:03:45;54.65;;;25.30;;
73980;SDS011;62348;51.412;5.436;2022-11-20T10:06:21;55.58;;;26.55;;
73980;SDS011;62348;51.412;5.436;2022-11-20T10:09:01;49.60;;;24.65;;
73980;SDS011;62348;51.412;5.436;2022-11-20T10:14:49;58.25;;;28.70;;
73980;SDS011;62348;51.412;5.436;2022-11-20T10:23:08;57.53;;;26.83;;
73980;SDS011;62348;51.412;5.436;2022-11-20T10:26:15;55.45;;;27.63;;
73980;SDS011;62348;51.412;5.436;2022-11-20T10:31:41;55.15;;;27.42;;
73980;SDS011;62348;51.412;5.436;2022-11-20T10:34:20;49.85;;;24.67;;
73980;SDS011;62348;51.412;5.436;2022-11-20T10:42:25;51.22;;;24.13;;
73980;SDS011;62348;51.412;5.436;2022-11-20T10:45:09;48.95;;;26.13;;
73980;SDS011;62348;51.412;5.436;2022-11-20T10:47:43;51.22;;;25.13;;
73980;SDS011;62348;51.412;5.436;2022-11-20T10:50:10;51.47;;;26.42;;
73980;SDS011;62348;51.412;5.436;2022-11-20T10:52:52;48.38;;;25.40;;
73980;SDS011;62348;51.412;5.436;2022-11-20T10:58:14;48.85;;;25.92;;
73980;SDS011;62348;51.412;5.436;2022-11-20T11:00:48;53.55;;;27.63;;
73980;SDS011;62348;51.412;5.436;2022-11-20T11:03:26;53.00;;;26.15;;
73980;SDS011;62348;51.412;5.436;2022-11-20T11:05:54;49.60;;;25.48;;
73980;SDS011;62348;51.412;5.436;2022-11-20T11:08:28;49.28;;;26.20;;
73980;SDS011;62348;51.412;5.436;2022-11-20T11:11:00;58.10;;;28.23;;
73980;SDS011;62348;51.412;5.436;2022-11-20T11:13:38;56.85;;;27.52;;
73980;SDS011;62348;51.412;5.436;2022-11-20T11:16:03;56.40;;;27.67;;
73980;SDS011;62348;51.412;5.436;2022-11-20T11:18:30;56.78;;;26.30;;
73980;SDS011;62348;51.412;5.436;2022-11-20T11:20:59;48.70;;;25.73;;
73980;SDS011;62348;51.412;5.436;2022-11-20T11:23:32;53.03;;;25.40;;
73980;SDS011;62348;51.412;5.436;2022-11-20T11:26:04;58.50;;;25.90;;
73980;SDS011;62348;51.412;5.436;2022-11-20T11:28:31;48.80;;;26.33;;
73980;SDS011;62348;51.412;5.436;2022-11-20T11:30:57;54.05;;;26.92;;
73980;SDS011;62348;51.412;5.436;2022-11-20T11:33:24;49.20;;;24.00;;
73980;SDS011;62348;51.412;5.436;2022-11-20T11:35:51;54.90;;;26.05;;
73980;SDS011;62348;51.412;5.436;2022-11-20T11:38:22;54.63;;;25.73;;
73980;SDS011;62348;51.412;5.436;2022-11-20T11:40:54;52.92;;;25.02;;
73980;SDS011;62348;51.412;5.436;2022-11-20T11:43:26;54.00;;;24.20;;
73980;SDS011;62348;51.412;5.436;2022-11-20T11:48:58;53.13;;;26.33;;
73980;SDS011;62348;51.412;5.436;2022-11-20T11:51:34;50.35;;;25.38;;
73980;SDS011;62348;51.412;5.436;2022-11-20T11:54:17;47.80;;;23.48;;
73980;SDS011;62348;51.412;5.436;2022-11-20T11:56:48;53.15;;;24.02;;
73980;SDS011;62348;51.412;5.436;2022-11-20T11:59:34;49.50;;;23.40;;
73980;SDS011;62348;51.412;5.436;2022-11-20T12:04:54;49.75;;;24.13;;
73980;SDS011;62348;51.412;5.436;2022-11-20T12:09:59;54.03;;;23.48;;
73980;SDS011;62348;51.412;5.436;2022-11-20T12:12:40;48.72;;;23.60;;
73980;SDS011;62348;51.412;5.436;2022-11-20T12:15:10;57.25;;;25.15;;
73980;SDS011;62348;51.412;5.436;2022-11-20T12:17:39;65.38;;;28.50;;
73980;SDS011;62348;51.412;5.436;2022-11-20T12:20:10;51.88;;;24.13;;
73980;SDS011;62348;51.412;5.436;2022-11-20T12:22:44;56.70;;;24.98;;
73980;SDS011;62348;51.412;5.436;2022-11-20T12:33:51;56.03;;;26.38;;
73980;SDS011;62348;51.412;5.436;2022-11-20T12:36:37;55.30;;;25.25;;
73980;SDS011;62348;51.412;5.436;2022-11-20T12:41:55;55.53;;;26.48;;
73980;SDS011;62348;51.412;5.436;2022-11-20T12:50:40;53.42;;;24.60;;
73980;SDS011;62348;51.412;5.436;2022-11-20T12:53:40;59.90;;;24.65;;
73980;SDS011;62348;51.412;5.436;2022-11-20T13:01:53;62.25;;;27.67;;
73980;SDS011;62348;51.412;5.436;2022-11-20T13:07:18;58.80;;;25.95;;
73980;SDS011;62348;51.412;5.436;2022-11-20T13:09:47;55.80;;;24.58;;
73980;SDS011;62348;51.412;5.436;2022-11-20T13:12:17;54.47;;;24.88;;
73980;SDS011;62348;51.412;5.436;2022-11-20T13:14:52;63.03;;;25.67;;
73980;SDS011;62348;51.412;5.436;2022-11-20T13:20:02;62.20;;;27.65;;
73980;SDS011;62348;51.412;5.436;2022-11-20T13:22:51;59.17;;;25.05;;
73980;SDS011;62348;51.412;5.436;2022-11-20T13:27:59;62.22;;;26.60;;
73980;SDS011;62348;51.412;5.436;2022-11-20T13:30:28;60.42;;;26.55;;
73980;SDS011;62348;51.412;5.436;2022-11-20T13:40:51;55.80;;;24.52;;
73980;SDS011;62348;51.412;5.436;2022-11-20T13:46:01;59.03;;;25.23;;
73980;SDS011;62348;51.412;5.436;2022-11-20T13:48:30;63.13;;;25.63;;
73980;SDS011;62348;51.412;5.436;2022-11-20T14:02:22;63.05;;;26.98;;
73980;SDS011;62348;51.412;5.436;2022-11-20T14:04:51;56.60;;;25.90;;
73980;SDS011;62348;51.412;5.436;2022-11-20T14:07:19;60.40;;;27.52;;
73980;SDS011;62348;51.412;5.436;2022-11-20T14:09:50;57.35;;;25.30;;
73980;SDS011;62348;51.412;5.436;2022-11-20T14:12:18;55.45;;;25.52;;
73980;SDS011;62348;51.412;5.436;2022-11-20T14:14:47;58.15;;;25.75;;
73980;SDS011;62348;51.412;5.436;2022-11-20T14:17:22;62.22;;;25.80;;
73980;SDS011;62348;51.412;5.436;2022-11-20T14:19:57;58.58;;;25.88;;
73980;SDS011;62348;51.412;5.436;2022-11-20T14:22:26;65.70;;;28.33;;
73980;SDS011;62348;51.412;5.436;2022-11-20T14:25:06;63.63;;;27.45;;
73980;SDS011;62348;51.412;5.436;2022-11-20T14:27:51;60.13;;;25.67;;
73980;SDS011;62348;51.412;5.436;2022-11-20T14:30:22;56.92;;;24.35;;
73980;SDS011;62348;51.412;5.436;2022-11-20T14:32:53;63.57;;;27.90;;
73980;SDS011;62348;51.412;5.436;2022-11-20T14:37:55;60.85;;;26.67;;
73980;SDS011;62348;51.412;5.436;2022-11-20T14:42:49;67.13;;;29.20;;
73980;SDS011;62348;51.412;5.436;2022-11-20T14:45:14;61.58;;;28.27;;
73980;SDS011;62348;51.412;5.436;2022-11-20T14:47:41;64.20;;;28.90;;
73980;SDS011;62348;51.412;5.436;2022-11-20T14:50:29;69.47;;;28.08;;
73980;SDS011;62348;51.412;5.436;2022-11-20T14:52:55;70.00;;;30.25;;
73980;SDS011;62348;51.412;5.436;2022-11-20T14:58:02;60.45;;;28.38;;
73980;SDS011;62348;51.412;5.436;2022-11-20T15:00:32;74.55;;;34.60;;
73980;SDS011;62348;51.412;5.436;2022-11-20T15:02:59;78.70;;;32.15;;
73980;SDS011;62348;51.412;5.436;2022-11-20T15:05:26;67.68;;;31.77;;
73980;SDS011;62348;51.412;5.436;2022-11-20T15:08:09;71.50;;;30.73;;
73980;SDS011;62348;51.412;5.436;2022-11-20T15:10:35;68.38;;;31.98;;
73980;SDS011;62348;51.412;5.436;2022-11-20T15:13:04;69.40;;;27.67;;
73980;SDS011;62348;51.412;5.436;2022-11-20T15:15:50;62.05;;;27.52;;
73980;SDS011;62348;51.412;5.436;2022-11-20T15:18:21;62.85;;;27.33;;
73980;SDS011;62348;51.412;5.436;2022-11-20T15:20:49;67.18;;;27.90;;
73980;SDS011;62348;51.412;5.436;2022-11-20T15:23:16;68.00;;;30.08;;
73980;SDS011;62348;51.412;5.436;2022-11-20T15:25:43;70.78;;;28.50;;
73980;SDS011;62348;51.412;5.436;2022-11-20T15:28:18;72.68;;;28.00;;
73980;SDS011;62348;51.412;5.436;2022-11-20T15:30:46;65.47;;;27.02;;
73980;SDS011;62348;51.412;5.436;2022-11-20T15:33:13;61.42;;;27.73;;
73980;SDS011;62348;51.412;5.436;2022-11-20T15:35:39;69.03;;;27.85;;
73980;SDS011;62348;51.412;5.436;2022-11-20T15:38:04;57.35;;;25.80;;
73980;SDS011;62348;51.412;5.436;2022-11-20T15:40:30;61.97;;;26.40;;
73980;SDS011;62348;51.412;5.436;2022-11-20T15:42:55;62.35;;;25.98;;
73980;SDS011;62348;51.412;5.436;2022-11-20T15:48:16;63.45;;;26.27;;
73980;SDS011;62348;51.412;5.436;2022-11-20T15:53:33;50.83;;;21.67;;
73980;SDS011;62348;51.412;5.436;2022-11-20T15:55:59;50.17;;;20.80;;
73980;SDS011;62348;51.412;5.436;2022-11-20T15:58:24;44.85;;;18.50;;
73980;SDS011;62348;51.412;5.436;2022-11-20T16:00:50;47.60;;;18.73;;
73980;SDS011;62348;51.412;5.436;2022-11-20T16:03:16;37.53;;;16.25;;
73980;SDS011;62348;51.412;5.436;2022-11-20T16:05:42;34.75;;;14.00;;
73980;SDS011;62348;51.412;5.436;2022-11-20T16:08:08;30.58;;;14.02;;
73980;SDS011;62348;51.412;5.436;2022-11-20T16:10:34;29.58;;;13.63;;
73980;SDS011;62348;51.412;5.436;2022-11-20T16:13:00;28.20;;;12.32;;
73980;SDS011;62348;51.412;5.436;2022-11-20T16:15:50;26.00;;;11.63;;
73980;SDS011;62348;51.412;5.436;2022-11-20T16:18:19;24.55;;;11.32;;
73980;SDS011;62348;51.412;5.436;2022-11-20T16:20:46;24.83;;;10.38;;